createdAt,value
2023-04-08T00:00:07.831Z,7.20
2023-04-08T00:01:07.718Z,7.80
2023-04-08T00:02:07.839Z,8.10
2023-04-08T00:03:07.894Z,10.40
2023-04-08T00:04:07.880Z,11.00
2023-04-08T00:05:07.692Z,7.90
2023-04-08T00:06:08.240Z,7.00
2023-04-08T00:07:07.671Z,7.10
2023-04-08T00:08:07.795Z,6.70
2023-04-08T00:09:07.702Z,6.90
2023-04-08T00:10:07.618Z,7.10
2023-04-08T00:11:07.616Z,7.60
2023-04-08T00:12:08.225Z,9.30
2023-04-08T00:13:07.569Z,8.40
2023-04-08T00:14:07.679Z,7.20
2023-04-08T00:15:07.562Z,7.90
2023-04-08T00:16:08.250Z,10.10
2023-04-08T00:17:08.260Z,8.50
2023-04-08T00:18:07.618Z,7.40
2023-04-08T00:19:07.563Z,5.30
2023-04-08T00:20:08.231Z,6.30
2023-04-08T00:21:07.648Z,7.80
2023-04-08T00:22:07.530Z,5.70
2023-04-08T00:23:07.582Z,4.40
2023-04-08T00:24:07.470Z,5.40
2023-04-08T00:25:07.522Z,4.70
2023-04-08T00:26:07.462Z,4.80
2023-04-08T00:27:07.523Z,4.90
2023-04-08T00:28:07.768Z,3.50
2023-04-08T00:29:07.404Z,3.30
2023-04-08T00:30:08.672Z,5.00
2023-04-08T00:31:07.460Z,3.10
2023-04-08T00:32:07.373Z,6.10
2023-04-08T00:33:07.589Z,4.60
2023-04-08T00:34:07.360Z,4.20
2023-04-08T00:35:07.340Z,3.80
2023-04-08T00:36:07.345Z,5.60
2023-04-08T00:37:07.450Z,4.00
2023-04-08T00:38:07.397Z,6.40
2023-04-08T00:39:07.290Z,5.60
2023-04-08T00:40:07.316Z,5.40
2023-04-08T00:41:07.324Z,5.80
2023-04-08T00:42:07.262Z,4.40
2023-04-08T00:43:07.236Z,3.50
2023-04-08T00:44:07.374Z,3.10
2023-04-08T00:45:07.299Z,4.20
2023-04-08T00:46:07.344Z,3.80
2023-04-08T00:47:07.580Z,4.20
2023-04-08T00:48:07.182Z,4.20
2023-04-08T00:49:07.172Z,4.40
2023-04-08T00:50:07.490Z,3.80
2023-04-08T00:51:07.162Z,3.40
2023-04-08T00:52:07.177Z,3.20
2023-04-08T00:53:07.275Z,3.20
2023-04-08T00:54:07.296Z,5.10
2023-04-08T00:55:07.127Z,4.80
2023-04-08T00:56:07.513Z,4.10
2023-04-08T00:57:07.103Z,3.40
2023-04-08T00:58:07.148Z,4.80
2023-04-08T00:59:07.260Z,5.10
2023-04-08T01:00:07.529Z,4.20
2023-04-08T01:01:07.395Z,3.10
2023-04-08T01:02:07.543Z,3.10
2023-04-08T01:03:07.304Z,3.10
2023-04-08T01:04:07.242Z,4.30
2023-04-08T01:05:07.079Z,3.60
2023-04-08T01:06:06.987Z,4.30
2023-04-08T01:07:07.056Z,3.90
2023-04-08T01:08:06.953Z,3.10
2023-04-08T01:09:07.326Z,3.20
2023-04-08T01:10:07.693Z,2.60
2023-04-08T01:11:07.442Z,2.70
2023-04-08T01:12:07.330Z,3.50
2023-04-08T01:13:07.051Z,3.40
2023-04-08T01:14:06.958Z,3.10
2023-04-08T01:15:06.893Z,2.60
2023-04-08T01:16:07.340Z,3.20
2023-04-08T01:17:06.978Z,2.80
2023-04-08T01:18:07.012Z,2.20
2023-04-08T01:19:07.189Z,2.10
2023-04-08T01:20:06.842Z,3.70
2023-04-08T01:21:07.257Z,3.70
2023-04-08T01:22:06.809Z,2.80
2023-04-08T01:23:07.322Z,2.10
2023-04-08T01:24:07.133Z,3.40
2023-04-08T01:25:06.880Z,2.20
2023-04-08T01:26:06.810Z,2.90
2023-04-08T01:27:06.824Z,2.80
2023-04-08T01:28:06.940Z,3.60
2023-04-08T01:29:06.991Z,3.30
2023-04-08T01:30:06.982Z,3.80
2023-04-08T01:31:06.814Z,3.10
2023-04-08T01:32:07.095Z,2.90
2023-04-08T01:33:06.721Z,2.80
2023-04-08T01:34:06.765Z,2.50
2023-04-08T01:35:06.811Z,3.20
2023-04-08T01:36:06.722Z,1.90
2023-04-08T01:37:07.020Z,3.00
2023-04-08T01:38:06.748Z,4.70
2023-04-08T01:39:06.743Z,4.20
2023-04-08T01:40:06.735Z,1.90
2023-04-08T01:41:07.003Z,1.70
2023-04-08T01:42:06.624Z,2.10
2023-04-08T01:43:06.636Z,3.30
2023-04-08T01:44:06.546Z,1.80
2023-04-08T01:45:06.810Z,1.90
2023-04-08T01:46:06.606Z,1.80
2023-04-08T01:47:06.864Z,3.40
2023-04-08T01:48:06.578Z,3.10
2023-04-08T01:49:06.974Z,2.40
2023-04-08T01:50:07.241Z,3.80
2023-04-08T01:51:06.549Z,1.90
2023-04-08T01:52:06.486Z,4.40
2023-04-08T01:53:06.434Z,1.70
2023-04-08T01:54:06.466Z,2.40
2023-04-08T01:55:06.454Z,2.10
2023-04-08T01:56:07.788Z,3.30
2023-04-08T01:57:06.419Z,2.80
2023-04-08T01:58:06.606Z,3.80
2023-04-08T01:59:06.788Z,2.20
2023-04-08T02:00:07.181Z,2.30
2023-04-08T02:01:06.395Z,2.40
2023-04-08T02:02:06.452Z,2.40
2023-04-08T02:03:06.519Z,2.00
2023-04-08T02:04:06.530Z,2.10
2023-04-08T02:05:06.770Z,2.10
2023-04-08T02:06:07.252Z,2.30
2023-04-08T02:07:06.435Z,2.00
2023-04-08T02:08:06.547Z,2.20
2023-04-08T02:09:06.264Z,2.70
2023-04-08T02:10:06.336Z,2.20
2023-04-08T02:11:06.312Z,2.30
2023-04-08T02:12:06.277Z,2.00
2023-04-08T02:13:06.488Z,3.40
2023-04-08T02:14:06.257Z,2.80
2023-04-08T02:15:06.596Z,2.20
2023-04-08T02:16:06.350Z,4.10
2023-04-08T02:17:06.459Z,2.80
2023-04-08T02:18:06.367Z,2.60
2023-04-08T02:19:06.225Z,3.00
2023-04-08T02:20:06.233Z,4.40
2023-04-08T02:21:06.209Z,3.80
2023-04-08T02:22:06.130Z,2.70
2023-04-08T02:23:06.111Z,5.20
2023-04-08T02:24:06.331Z,3.90
2023-04-08T02:25:06.120Z,3.00
2023-04-08T02:26:06.299Z,3.20
2023-04-08T02:27:06.088Z,3.20
2023-04-08T02:28:06.031Z,2.70
2023-04-08T02:29:06.105Z,3.10
2023-04-08T02:30:06.034Z,5.40
2023-04-08T02:31:06.208Z,3.60
2023-04-08T02:32:06.276Z,4.40
2023-04-08T02:33:06.097Z,4.00
2023-04-08T02:34:05.974Z,2.90
2023-04-08T02:35:06.028Z,2.80
2023-04-08T02:36:06.052Z,3.40
2023-04-08T02:37:06.010Z,3.80
2023-04-08T02:38:06.210Z,3.50
2023-04-08T02:39:05.910Z,3.20
2023-04-08T02:40:05.914Z,5.50
2023-04-08T02:41:05.951Z,2.80
2023-04-08T02:42:06.148Z,3.30
2023-04-08T02:43:05.918Z,4.80
2023-04-08T02:44:05.935Z,3.60
2023-04-08T02:45:05.909Z,4.80
2023-04-08T02:46:05.982Z,4.40
2023-04-08T02:47:05.858Z,3.70
2023-04-08T02:48:06.118Z,3.70
2023-04-08T02:49:06.034Z,4.30
2023-04-08T02:50:05.822Z,5.10
2023-04-08T02:51:05.885Z,5.50
2023-04-08T02:52:06.496Z,4.60
2023-04-08T02:53:05.755Z,3.90
2023-04-08T02:54:05.737Z,6.80
2023-04-08T02:55:05.763Z,4.90
2023-04-08T02:56:06.069Z,7.40
2023-04-08T02:57:05.801Z,8.80
2023-04-08T02:58:05.846Z,6.30
2023-04-08T02:59:05.717Z,6.80
2023-04-08T03:00:05.680Z,5.10
2023-04-08T03:01:06.290Z,5.00
2023-04-08T03:02:05.837Z,6.20
2023-04-08T03:03:06.284Z,6.70
2023-04-08T03:04:05.647Z,4.50
2023-04-08T03:05:05.976Z,6.00
2023-04-08T03:06:05.866Z,3.90
2023-04-08T03:07:08.031Z,4.70
2023-04-08T03:08:05.572Z,5.20
2023-04-08T03:09:05.586Z,5.70
2023-04-08T03:10:05.568Z,5.10
2023-04-08T03:11:07.180Z,5.60
2023-04-08T03:12:05.757Z,4.20
2023-04-08T03:13:05.653Z,5.70
2023-04-08T03:14:05.747Z,4.80
2023-04-08T03:15:05.518Z,8.00
2023-04-08T03:16:05.588Z,4.30
2023-04-08T03:17:05.475Z,6.70
2023-04-08T03:18:05.515Z,5.00
2023-04-08T03:19:05.626Z,5.70
2023-04-08T03:20:05.528Z,7.30
2023-04-08T03:21:05.670Z,5.60
2023-04-08T03:22:05.416Z,5.50
2023-04-08T03:23:05.573Z,5.30
2023-04-08T03:24:05.593Z,4.80
2023-04-08T03:25:05.407Z,7.90
2023-04-08T03:26:05.378Z,9.40
2023-04-08T03:27:05.452Z,6.50
2023-04-08T03:28:05.462Z,5.70
2023-04-08T03:29:05.342Z,9.20
2023-04-08T03:30:06.257Z,5.70
2023-04-08T03:31:05.552Z,4.60
2023-04-08T03:32:05.525Z,6.20
2023-04-08T03:33:07.300Z,7.30
2023-04-08T03:34:05.394Z,7.90
2023-04-08T03:35:05.327Z,7.50
2023-04-08T03:36:05.456Z,5.70
2023-04-08T03:37:05.278Z,5.90
2023-04-08T03:38:05.278Z,9.70
2023-04-08T03:39:05.554Z,7.00
2023-04-08T03:40:05.239Z,7.20
2023-04-08T03:41:05.220Z,5.40
2023-04-08T03:42:05.211Z,4.80
2023-04-08T03:43:05.338Z,7.40
2023-04-08T03:44:05.189Z,4.90
2023-04-08T03:45:05.192Z,6.00
2023-04-08T03:46:05.201Z,7.00
2023-04-08T03:47:05.326Z,6.10
2023-04-08T03:48:05.208Z,5.00
2023-04-08T03:49:05.165Z,6.30
2023-04-08T03:50:05.193Z,5.50
2023-04-08T03:51:05.236Z,7.40
2023-04-08T03:52:05.075Z,5.30
2023-04-08T03:53:05.204Z,5.20
2023-04-08T03:54:05.061Z,4.20
2023-04-08T03:55:05.144Z,5.70
2023-04-08T03:56:05.281Z,4.00
2023-04-08T03:57:05.037Z,5.00
2023-04-08T03:58:05.302Z,5.80
2023-04-08T03:59:05.142Z,4.40
2023-04-08T04:00:05.175Z,5.40
2023-04-08T04:01:04.977Z,5.00
2023-04-08T04:02:05.078Z,4.50
2023-04-08T04:03:05.036Z,4.50
2023-04-08T04:04:06.177Z,5.40
2023-04-08T04:05:05.039Z,5.20
2023-04-08T04:06:05.102Z,4.50
2023-04-08T04:07:05.026Z,3.80
2023-04-08T04:08:04.910Z,4.40
2023-04-08T04:09:04.969Z,3.00
2023-04-08T04:10:04.999Z,3.40
2023-04-08T04:11:05.029Z,2.40
2023-04-08T04:12:04.949Z,2.90
2023-04-08T04:13:05.383Z,3.40
2023-04-08T04:14:04.864Z,3.40
2023-04-08T04:15:04.862Z,3.40
2023-04-08T04:16:04.848Z,3.10
2023-04-08T04:17:04.894Z,3.00
2023-04-08T04:18:04.881Z,7.80
2023-04-08T04:19:04.881Z,6.20
2023-04-08T04:20:04.774Z,9.40
2023-04-08T04:21:05.001Z,10.30
2023-04-08T04:22:04.757Z,9.00
2023-04-08T04:23:04.761Z,7.70
2023-04-08T04:24:04.713Z,5.50
2023-04-08T04:25:04.901Z,4.70
2023-04-08T04:26:04.686Z,4.20
2023-04-08T04:27:04.703Z,3.20
2023-04-08T04:28:04.706Z,4.50
2023-04-08T04:29:04.700Z,4.70
2023-04-08T04:30:04.644Z,3.40
2023-04-08T04:31:04.699Z,3.30
2023-04-08T04:32:04.616Z,2.70
2023-04-08T04:33:04.788Z,3.20
2023-04-08T04:34:04.594Z,3.30
2023-04-08T04:35:04.591Z,3.20
2023-04-08T04:36:04.744Z,6.50
2023-04-08T04:37:04.606Z,4.50
2023-04-08T04:38:04.698Z,5.70
2023-04-08T04:39:04.607Z,2.60
2023-04-08T04:40:04.548Z,3.10
2023-04-08T04:41:04.531Z,2.90
2023-04-08T04:42:04.635Z,4.00
2023-04-08T04:43:04.547Z,6.20
2023-04-08T04:44:04.661Z,2.40
2023-04-08T04:45:04.485Z,2.20
2023-04-08T04:46:04.502Z,2.60
2023-04-08T04:47:04.449Z,2.50
2023-04-08T04:48:04.520Z,3.30
2023-04-08T04:49:04.434Z,2.10
2023-04-08T04:50:05.230Z,2.20
2023-04-08T04:51:04.461Z,2.20
2023-04-08T04:52:04.821Z,3.10
2023-04-08T04:53:04.403Z,1.80
2023-04-08T04:54:04.393Z,1.90
2023-04-08T04:55:04.511Z,1.70
2023-04-08T04:56:05.233Z,2.20
2023-04-08T04:57:04.552Z,1.30
2023-04-08T04:58:05.312Z,2.10
2023-04-08T04:59:04.326Z,2.60
2023-04-08T05:00:05.432Z,1.80
2023-04-08T05:01:05.825Z,1.90
2023-04-08T05:02:04.337Z,2.90
2023-04-08T05:03:04.332Z,1.50
2023-04-08T05:04:04.282Z,2.70
2023-04-08T05:05:04.329Z,1.60
2023-04-08T05:06:04.241Z,1.80
2023-04-08T05:07:04.428Z,2.00
2023-04-08T05:08:04.314Z,1.60
2023-04-08T05:09:04.225Z,2.20
2023-04-08T05:10:04.208Z,1.60
2023-04-08T05:11:04.381Z,2.30
2023-04-08T05:12:04.175Z,4.50
2023-04-08T05:13:04.207Z,2.00
2023-04-08T05:14:04.176Z,1.70
2023-04-08T05:15:04.202Z,1.70
2023-04-08T05:16:04.221Z,2.00
2023-04-08T05:17:04.237Z,2.80
2023-04-08T05:18:04.197Z,2.10
2023-04-08T05:19:04.110Z,2.50
2023-04-08T05:20:04.172Z,1.80
2023-04-08T05:21:04.168Z,2.10
2023-04-08T05:22:04.079Z,1.70
2023-04-08T05:23:04.122Z,2.30
2023-04-08T05:24:04.034Z,4.20
2023-04-08T05:25:04.257Z,1.70
2023-04-08T05:26:04.037Z,1.60
2023-04-08T05:27:04.013Z,1.30
2023-04-08T05:28:04.738Z,1.80
2023-04-08T05:29:04.054Z,3.10
2023-04-08T05:30:04.065Z,2.50
2023-04-08T05:31:03.999Z,1.50
2023-04-08T05:32:03.961Z,1.40
2023-04-08T05:33:04.039Z,2.60
2023-04-08T05:34:03.920Z,1.70
2023-04-08T05:35:04.063Z,1.80
2023-04-08T05:36:03.968Z,2.40
2023-04-08T05:37:03.964Z,1.70
2023-04-08T05:38:03.880Z,1.10
2023-04-08T05:39:03.896Z,2.30
2023-04-08T05:40:03.872Z,2.20
2023-04-08T05:41:04.319Z,1.60
2023-04-08T05:42:03.838Z,2.10
2023-04-08T05:43:03.833Z,4.30
2023-04-08T05:44:04.690Z,1.70
2023-04-08T05:45:03.813Z,2.30
2023-04-08T05:46:03.795Z,1.70
2023-04-08T05:47:03.890Z,1.70
2023-04-08T05:48:03.867Z,2.00
2023-04-08T05:49:03.762Z,1.30
2023-04-08T05:50:04.733Z,1.70
2023-04-08T05:51:03.764Z,2.60
2023-04-08T05:52:03.788Z,2.10
2023-04-08T05:53:03.784Z,1.30
2023-04-08T05:54:03.794Z,1.50
2023-04-08T05:55:03.750Z,1.00
2023-04-08T05:56:03.693Z,3.60
2023-04-08T05:57:03.732Z,1.10
2023-04-08T05:58:03.718Z,1.40
2023-04-08T05:59:03.635Z,1.20
2023-04-08T06:00:03.868Z,1.70
2023-04-08T06:01:03.675Z,1.70
2023-04-08T06:02:03.805Z,1.20
2023-04-08T06:03:03.867Z,1.40
2023-04-08T06:04:03.775Z,1.30
2023-04-08T06:05:03.745Z,2.00
2023-04-08T06:06:04.228Z,1.70
2023-04-08T06:07:03.598Z,2.10
2023-04-08T06:08:03.546Z,3.00
2023-04-08T06:09:03.613Z,3.30
2023-04-08T06:10:03.629Z,5.50
2023-04-08T06:11:03.489Z,15.30
2023-04-08T06:12:03.649Z,40.60
2023-04-08T06:13:03.464Z,34.30
2023-04-08T06:14:06.378Z,38.50
2023-04-08T06:15:03.483Z,31.70
2023-04-08T06:16:03.532Z,16.90
2023-04-08T06:17:04.266Z,4.50
2023-04-08T06:18:03.478Z,4.70
2023-04-08T06:19:03.494Z,9.80
2023-04-08T06:20:03.445Z,9.20
2023-04-08T06:21:03.409Z,18.10
2023-04-08T06:22:04.278Z,16.90
2023-04-08T06:23:03.462Z,9.70
2023-04-08T06:24:03.372Z,6.00
2023-04-08T06:25:03.358Z,2.00
2023-04-08T06:26:03.313Z,4.80
2023-04-08T06:27:03.422Z,3.00
2023-04-08T06:28:03.293Z,3.00
2023-04-08T06:29:03.338Z,4.20
2023-04-08T06:30:04.377Z,2.40
2023-04-08T06:31:03.289Z,1.80
2023-04-08T06:32:03.323Z,1.80
2023-04-08T06:33:03.408Z,7.70
2023-04-08T06:34:03.258Z,1.90
2023-04-08T06:35:03.237Z,3.60
2023-04-08T06:36:03.335Z,3.70
2023-04-08T06:37:03.303Z,7.40
2023-04-08T06:38:03.469Z,4.30
2023-04-08T06:39:03.756Z,6.10
2023-04-08T06:40:03.265Z,4.60
2023-04-08T06:41:03.736Z,1.90
2023-04-08T06:42:03.245Z,2.90
2023-04-08T06:43:03.125Z,5.10
2023-04-08T06:44:03.202Z,2.40
2023-04-08T06:45:03.719Z,2.90
2023-04-08T06:46:03.170Z,2.00
2023-04-08T06:47:03.103Z,2.90
2023-04-08T06:48:03.158Z,2.90
2023-04-08T06:49:03.109Z,5.50
2023-04-08T06:50:03.045Z,2.60
2023-04-08T06:51:03.054Z,5.20
2023-04-08T06:52:03.165Z,4.20
2023-04-08T06:53:03.028Z,2.20
2023-04-08T06:54:03.772Z,3.20
2023-04-08T06:55:02.983Z,3.20
2023-04-08T06:56:02.986Z,3.90
2023-04-08T06:57:03.140Z,2.10
2023-04-08T06:58:03.003Z,1.50
2023-04-08T06:59:02.953Z,2.10
2023-04-08T07:00:02.946Z,1.70
2023-04-08T07:01:02.977Z,4.10
2023-04-08T07:02:02.979Z,3.80
2023-04-08T07:03:02.972Z,1.50
2023-04-08T07:04:02.956Z,2.80
2023-04-08T07:05:02.918Z,3.60
2023-04-08T07:06:02.861Z,3.00
2023-04-08T07:07:02.859Z,3.10
2023-04-08T07:08:02.836Z,5.00
2023-04-08T07:09:02.978Z,1.90
2023-04-08T07:10:02.816Z,1.80
2023-04-08T07:11:02.859Z,1.40
2023-04-08T07:12:02.888Z,2.30
2023-04-08T07:13:02.819Z,2.00
2023-04-08T07:14:02.800Z,2.00
2023-04-08T07:15:02.836Z,1.50
2023-04-08T07:16:02.812Z,1.20
2023-04-08T07:17:02.805Z,1.70
2023-04-08T07:18:02.872Z,1.20
2023-04-08T07:19:02.885Z,1.20
2023-04-08T07:20:02.767Z,0.80
2023-04-08T07:21:02.729Z,1.10
2023-04-08T07:22:02.717Z,1.60
2023-04-08T07:23:03.305Z,1.30
2023-04-08T07:24:02.681Z,1.10
2023-04-08T07:25:02.668Z,1.00
2023-04-08T07:26:02.665Z,1.30
2023-04-08T07:27:02.626Z,2.20
2023-04-08T07:28:02.614Z,1.30
2023-04-08T07:29:02.640Z,1.70
2023-04-08T07:30:02.631Z,1.30
2023-04-08T07:31:02.680Z,2.10
2023-04-08T07:32:03.556Z,1.70
2023-04-08T07:33:02.650Z,1.90
2023-04-08T07:34:02.699Z,1.80
2023-04-08T07:35:02.587Z,2.10
2023-04-08T07:36:02.596Z,2.00
2023-04-08T07:37:02.591Z,1.50
2023-04-08T07:38:02.634Z,1.80
2023-04-08T07:39:02.520Z,2.50
2023-04-08T07:40:02.581Z,1.90
2023-04-08T07:41:02.475Z,2.00
2023-04-08T07:42:02.540Z,2.10
2023-04-08T07:43:02.468Z,2.20
2023-04-08T07:44:03.224Z,3.00
2023-04-08T07:45:02.428Z,2.40
2023-04-08T07:46:02.455Z,2.60
2023-04-08T07:47:02.604Z,3.30
2023-04-08T07:48:02.521Z,3.50
2023-04-08T07:49:02.386Z,2.30
2023-04-08T07:50:02.387Z,2.20
2023-04-08T07:51:08.722Z,3.20
2023-04-08T07:52:03.344Z,3.70
2023-04-08T07:53:02.399Z,22.70
2023-04-08T07:54:02.317Z,4.10
2023-04-08T07:55:02.311Z,5.10
2023-04-08T07:56:02.440Z,2.40
2023-04-08T07:57:02.366Z,4.00
2023-04-08T07:58:02.610Z,4.30
2023-04-08T07:59:05.224Z,2.60
2023-04-08T08:00:02.254Z,2.40
2023-04-08T08:01:02.234Z,2.70
2023-04-08T08:02:02.396Z,3.70
2023-04-08T08:03:02.382Z,2.70
2023-04-08T08:04:03.012Z,6.20
2023-04-08T08:05:02.316Z,2.00
2023-04-08T08:06:02.201Z,3.10
2023-04-08T08:07:02.167Z,2.00
2023-04-08T08:08:02.157Z,1.70
2023-04-08T08:09:02.180Z,1.80
2023-04-08T08:10:02.190Z,2.30
2023-04-08T08:11:02.145Z,2.60
2023-04-08T08:12:02.288Z,2.30
2023-04-08T08:13:04.727Z,3.20
2023-04-08T08:14:02.294Z,3.10
2023-04-08T08:15:02.124Z,2.60
2023-04-08T08:16:02.252Z,2.90
2023-04-08T08:17:02.065Z,3.90
2023-04-08T08:18:02.231Z,2.30
2023-04-08T08:19:02.057Z,2.40
2023-04-08T08:20:02.038Z,3.10
2023-04-08T08:21:02.174Z,2.60
2023-04-08T08:22:02.132Z,2.50
2023-04-08T08:23:02.133Z,3.20
2023-04-08T08:24:01.970Z,2.20
2023-04-08T08:25:02.007Z,2.30
2023-04-08T08:26:02.119Z,3.10
2023-04-08T08:27:01.955Z,3.00
2023-04-08T08:28:05.688Z,2.40
2023-04-08T08:29:01.914Z,2.40
2023-04-08T08:30:01.902Z,2.90
2023-04-08T08:31:02.005Z,2.10
2023-04-08T08:32:01.902Z,2.00
2023-04-08T08:33:01.935Z,2.70
2023-04-08T08:34:02.685Z,7.30
2023-04-08T08:35:01.886Z,3.10
2023-04-08T08:36:01.971Z,2.40
2023-04-08T08:37:01.829Z,1.80
2023-04-08T08:38:01.843Z,2.60
2023-04-08T08:39:01.854Z,2.10
2023-04-08T08:40:02.728Z,1.70
2023-04-08T08:41:01.862Z,1.80
2023-04-08T08:42:01.772Z,2.20
2023-04-08T08:43:01.923Z,2.10
2023-04-08T08:44:01.780Z,2.50
2023-04-08T08:45:01.747Z,2.60
2023-04-08T08:46:02.265Z,2.00
2023-04-08T08:47:01.796Z,3.00
2023-04-08T08:48:01.879Z,2.80
2023-04-08T08:49:01.699Z,2.90
2023-04-08T08:50:01.673Z,3.50
2023-04-08T08:51:01.673Z,2.80
2023-04-08T08:52:01.786Z,3.60
2023-04-08T08:53:01.677Z,4.00
2023-04-08T08:54:01.657Z,5.10
2023-04-08T08:55:01.661Z,2.80
2023-04-08T08:56:17.216Z,4.00
2023-04-08T08:57:02.639Z,3.10
2023-04-08T08:58:01.609Z,3.50
2023-04-08T08:59:01.609Z,4.30
2023-04-08T09:00:01.801Z,4.20
2023-04-08T09:01:02.251Z,4.40
2023-04-08T09:02:01.721Z,5.50
2023-04-08T09:03:01.755Z,4.60
2023-04-08T09:04:01.705Z,5.40
2023-04-08T09:05:01.620Z,3.60
2023-04-08T09:06:01.639Z,4.40
2023-04-08T09:07:01.481Z,4.20
2023-04-08T09:08:01.470Z,5.10
2023-04-08T09:09:01.519Z,5.40
2023-04-08T09:10:01.481Z,5.00
2023-04-08T09:11:01.491Z,5.00
2023-04-08T09:12:01.423Z,5.10
2023-04-08T09:13:01.502Z,6.80
2023-04-08T09:14:01.416Z,5.50
2023-04-08T09:15:01.428Z,4.50
2023-04-08T09:16:01.397Z,4.40
2023-04-08T09:17:01.410Z,5.30
2023-04-08T09:18:01.394Z,4.60
2023-04-08T09:19:01.399Z,6.70
2023-04-08T09:20:02.226Z,6.50
2023-04-08T09:21:01.344Z,7.60
2023-04-08T09:22:01.430Z,5.30
2023-04-08T09:23:01.319Z,6.00
2023-04-08T09:24:01.330Z,7.10
2023-04-08T09:25:01.299Z,7.50
2023-04-08T09:26:01.261Z,6.20
2023-04-08T09:27:01.423Z,6.00
2023-04-08T09:28:01.281Z,6.50
2023-04-08T09:29:10.926Z,6.20
2023-04-08T09:30:02.279Z,6.60
2023-04-08T09:31:01.206Z,5.20
2023-04-08T09:32:01.568Z,6.60
2023-04-08T09:33:01.278Z,7.40
2023-04-08T09:34:01.198Z,5.80
2023-04-08T09:35:01.185Z,7.20
2023-04-08T09:36:01.208Z,6.70
2023-04-08T09:37:01.172Z,6.80
2023-04-08T09:38:01.887Z,6.70
2023-04-08T09:39:01.171Z,6.50
2023-04-08T09:40:01.119Z,6.70
2023-04-08T09:41:01.733Z,7.60
2023-04-08T09:42:01.197Z,7.30
2023-04-08T09:43:01.116Z,6.90
2023-04-08T09:44:01.241Z,8.30
2023-04-08T09:45:01.150Z,6.50
2023-04-08T09:46:01.265Z,6.10
2023-04-08T09:47:01.092Z,7.00
2023-04-08T09:48:01.024Z,6.70
2023-04-08T09:49:01.011Z,6.70
2023-04-08T09:50:01.025Z,6.70
2023-04-08T09:51:01.014Z,6.30
2023-04-08T09:52:03.764Z,6.60
2023-04-08T09:53:01.131Z,6.50
2023-04-08T09:54:01.045Z,7.20
2023-04-08T09:55:02.086Z,6.20
2023-04-08T09:56:00.962Z,6.00
2023-04-08T09:57:00.940Z,5.90
2023-04-08T09:58:00.951Z,5.80
2023-04-08T09:59:00.908Z,6.70
2023-04-08T10:00:01.113Z,6.80
2023-04-08T10:01:00.929Z,6.30
2023-04-08T10:02:00.966Z,6.40
2023-04-08T10:03:01.100Z,6.60
2023-04-08T10:04:00.940Z,6.00
2023-04-08T10:05:00.966Z,7.60
2023-04-08T10:06:00.849Z,8.20
2023-04-08T10:07:00.812Z,6.40
2023-04-08T10:08:00.816Z,5.80
2023-04-08T10:09:01.375Z,6.20
2023-04-08T10:10:00.766Z,7.50
2023-04-08T10:11:00.757Z,6.10
2023-04-08T10:12:00.748Z,8.30
2023-04-08T10:13:00.754Z,26.80
2023-04-08T10:14:00.751Z,44.60
2023-04-08T10:15:00.862Z,20.90
2023-04-08T10:16:00.758Z,38.20
2023-04-08T10:17:00.738Z,13.40
2023-04-08T10:18:00.727Z,41.80
2023-04-08T10:19:00.682Z,9.30
2023-04-08T10:20:00.706Z,8.50
2023-04-08T10:21:01.264Z,6.30
2023-04-08T10:22:00.633Z,6.70
2023-04-08T10:23:00.623Z,7.80
2023-04-08T10:24:00.632Z,7.70
2023-04-08T10:25:00.594Z,6.80
2023-04-08T10:26:00.615Z,6.50
2023-04-08T10:27:00.701Z,6.80
2023-04-08T10:28:00.585Z,7.50
2023-04-08T10:29:00.577Z,7.00
2023-04-08T10:30:00.559Z,6.10
2023-04-08T10:31:00.556Z,5.50
2023-04-08T10:32:00.542Z,5.20
2023-04-08T10:33:00.737Z,7.50
2023-04-08T10:34:00.500Z,6.50
2023-04-08T10:35:01.229Z,6.30
2023-04-08T10:36:00.537Z,6.50
2023-04-08T10:37:00.463Z,6.20
2023-04-08T10:38:00.451Z,6.50
2023-04-08T10:39:00.464Z,6.90
2023-04-08T10:40:00.455Z,7.00
2023-04-08T10:41:00.414Z,7.40
2023-04-08T10:42:00.423Z,5.80
2023-04-08T10:43:00.394Z,5.50
2023-04-08T10:44:00.378Z,5.60
2023-04-08T10:45:01.210Z,5.60
2023-04-08T10:46:00.391Z,5.50
2023-04-08T10:47:00.361Z,5.50
2023-04-08T10:48:00.418Z,6.20
2023-04-08T10:49:01.250Z,5.20
2023-04-08T10:50:00.316Z,6.50
2023-04-08T10:51:00.459Z,5.90
2023-04-08T10:52:00.288Z,7.40
2023-04-08T10:53:00.283Z,6.80
2023-04-08T10:54:00.264Z,5.80
2023-04-08T10:55:00.282Z,6.50
2023-04-08T10:56:01.229Z,6.30
2023-04-08T10:57:01.188Z,6.80
2023-04-08T10:58:00.279Z,5.70
2023-04-08T10:59:00.234Z,5.10
2023-04-08T11:00:00.238Z,5.10
2023-04-08T11:01:00.209Z,5.20
2023-04-08T11:02:00.425Z,5.00
2023-04-08T11:03:00.334Z,6.00
2023-04-08T11:04:00.338Z,6.20
2023-04-08T11:05:00.216Z,5.10
2023-04-08T11:06:00.134Z,7.00
2023-04-08T11:07:00.125Z,9.30
2023-04-08T11:08:00.142Z,6.40
2023-04-08T11:09:00.201Z,8.50
2023-04-08T11:10:00.145Z,7.50
2023-04-08T11:11:00.104Z,5.90
2023-04-08T11:12:00.108Z,6.20
2023-04-08T11:13:00.124Z,7.60
2023-04-08T11:14:00.084Z,5.90
2023-04-08T11:15:00.121Z,5.60
2023-04-08T11:16:00.323Z,5.50
2023-04-08T11:17:00.008Z,6.20
2023-04-08T11:18:00.066Z,5.50
2023-04-08T11:18:59.987Z,5.50
2023-04-08T11:19:59.978Z,7.10
2023-04-08T11:21:00.400Z,6.30
2023-04-08T11:21:59.974Z,15.70
2023-04-08T11:23:00.026Z,9.70
2023-04-08T11:23:59.954Z,11.40
2023-04-08T11:25:00.736Z,7.00
2023-04-08T11:25:59.926Z,4.80
2023-04-08T11:27:01.342Z,6.30
2023-04-08T11:27:59.880Z,5.10
2023-04-08T11:28:59.892Z,7.00
2023-04-08T11:30:00.686Z,4.80
2023-04-08T11:30:59.908Z,4.30
2023-04-08T11:31:59.853Z,4.40
2023-04-08T11:32:59.849Z,5.20
2023-04-08T11:33:59.976Z,4.40
2023-04-08T11:34:59.801Z,4.40
2023-04-08T11:35:59.837Z,4.60
2023-04-08T11:36:59.793Z,4.80
2023-04-08T11:37:59.773Z,5.40
2023-04-08T11:38:59.778Z,5.90
2023-04-08T11:39:59.748Z,6.00
2023-04-08T11:40:59.855Z,6.10
2023-04-08T11:41:59.738Z,5.90
2023-04-08T11:42:59.709Z,6.20
2023-04-08T11:44:00.691Z,6.20
2023-04-08T11:44:59.713Z,6.00
2023-04-08T11:45:59.721Z,6.90
2023-04-08T11:46:59.705Z,4.80
2023-04-08T11:48:08.264Z,6.70
2023-04-08T11:49:00.654Z,7.30
2023-04-08T11:49:59.666Z,7.30
2023-04-08T11:50:59.625Z,6.00
2023-04-08T11:51:59.635Z,6.20
2023-04-08T11:52:59.637Z,5.30
2023-04-08T11:53:59.623Z,6.00
2023-04-08T11:54:59.572Z,7.10
2023-04-08T11:55:59.607Z,4.70
2023-04-08T11:56:59.664Z,6.20
2023-04-08T11:57:59.540Z,6.10
2023-04-08T11:59:00.263Z,7.30
2023-04-08T11:59:59.509Z,6.10
2023-04-08T12:00:59.504Z,7.70
2023-04-08T12:01:59.549Z,7.40
2023-04-08T12:02:59.549Z,6.10
2023-04-08T12:03:59.601Z,6.70
2023-04-08T12:04:59.488Z,10.10
2023-04-08T12:05:59.442Z,11.10
2023-04-08T12:06:59.510Z,6.30
2023-04-08T12:07:59.449Z,9.70
2023-04-08T12:09:00.614Z,9.90
2023-04-08T12:09:59.397Z,11.90
2023-04-08T12:11:09.260Z,8.60
2023-04-08T12:12:01.240Z,7.10
2023-04-08T12:12:59.512Z,7.60
2023-04-08T12:13:59.378Z,7.00
2023-04-08T12:15:00.286Z,7.50
2023-04-08T12:15:59.376Z,6.50
2023-04-08T12:16:59.311Z,8.50
2023-04-08T12:17:59.317Z,8.90
2023-04-08T12:18:59.308Z,9.00
2023-04-08T12:20:00.205Z,8.00
2023-04-08T12:20:59.268Z,7.10
2023-04-08T12:22:00.244Z,6.80
2023-04-08T12:22:59.262Z,8.40
2023-04-08T12:23:59.257Z,9.10
2023-04-08T12:24:59.433Z,9.00
2023-04-08T12:25:59.215Z,9.00
2023-04-08T12:27:00.190Z,7.00
2023-04-08T12:27:59.736Z,8.70
2023-04-08T12:28:59.224Z,8.30
2023-04-08T12:29:59.193Z,8.10
2023-04-08T12:30:59.159Z,8.00
2023-04-08T12:32:00.772Z,7.40
2023-04-08T12:32:59.178Z,8.60
2023-04-08T12:33:59.121Z,7.60
2023-04-08T12:34:59.707Z,8.30
2023-04-08T12:35:59.799Z,8.30
2023-04-08T12:36:59.086Z,8.80
2023-04-08T12:37:59.106Z,7.60
2023-04-08T12:38:59.123Z,7.60
2023-04-08T12:39:59.055Z,8.30
2023-04-08T12:40:59.080Z,9.10
2023-04-08T12:41:59.039Z,8.90
2023-04-08T12:42:59.024Z,9.50
2023-04-08T12:43:59.039Z,9.30
2023-04-08T12:44:59.016Z,9.10
2023-04-08T12:45:59.031Z,12.00
2023-04-08T12:46:59.902Z,10.00
2023-04-08T12:47:59.008Z,12.70
2023-04-08T12:49:04.155Z,10.30
2023-04-08T12:50:00.047Z,11.00
2023-04-08T12:50:58.981Z,11.70
2023-04-08T12:51:58.913Z,11.30
2023-04-08T12:52:58.988Z,11.20
2023-04-08T12:53:58.892Z,12.40
2023-04-08T12:54:58.898Z,12.00
2023-04-08T12:55:59.016Z,10.10
2023-04-08T12:56:58.897Z,12.20
2023-04-08T12:57:58.851Z,10.90
2023-04-08T12:58:58.833Z,11.60
2023-04-08T12:59:58.824Z,10.20
2023-04-08T13:00:58.978Z,10.40
2023-04-08T13:01:58.927Z,10.90
2023-04-08T13:02:58.886Z,9.30
2023-04-08T13:03:58.874Z,11.20
2023-04-08T13:04:58.774Z,10.80
2023-04-08T13:05:58.786Z,11.30
2023-04-08T13:06:58.784Z,12.70
2023-04-08T13:07:58.736Z,12.20
2023-04-08T13:08:59.699Z,10.60
2023-04-08T13:09:58.749Z,12.30
2023-04-08T13:10:58.747Z,10.60
2023-04-08T13:11:58.779Z,9.60
2023-04-08T13:12:58.691Z,10.10
2023-04-08T13:13:58.686Z,13.50
2023-04-08T13:14:58.689Z,12.50
2023-04-08T13:15:59.800Z,13.20